Time;durP1;ratioP1;P1;durP2;ratioP2;P2;SDS_P1;SDS_P2;PMS_P1;PMS_P2;Temp;Humidity;BMP_temperature;BMP_pressure;BME280_temperature;BME280_humidity;BME280_pressure;Samples;Min_cycle;Max_cycle;Signal;HPM_P1;HPM_P2
2021/08/17 00:02:04;;;;;;;;;;;25.20;41.30;;;;;;4337702;32;19965;-38
2021/08/17 00:04:30;;;;;;;;;;;25.20;41.60;;;;;;4355794;32;19977;-39
2021/08/17 00:06:56;;;;;;;;;;;25.20;41.40;;;;;;4356366;32;20157;-38
2021/08/17 00:09:22;;;;;;;;;;;25.20;41.50;;;;;;4355526;32;19992;-39
2021/08/17 00:11:49;;;;;;;;;;;25.10;41.50;;;;;;4355933;32;19961;-39
2021/08/17 00:14:15;;;;;;;;;;;25.10;41.70;;;;;;4356147;32;19978;-39
2021/08/17 00:16:41;;;;;;;;;;;25.10;42.00;;;;;;4355494;32;19969;-38
2021/08/17 00:19:08;;;;;;;;;;;25.20;42.00;;;;;;4355921;32;20094;-38
2021/08/17 00:21:35;;;;;;;;;;;25.20;42.10;;;;;;4356006;32;19973;-38
2021/08/17 00:24:01;;;;;;;;;;;25.20;42.10;;;;;;4343573;32;20517;-38
2021/08/17 00:26:27;;;;;;;;;;;25.20;42.30;;;;;;4355657;32;20432;-39
2021/08/17 00:28:53;;;;;;;;;;;25.20;42.20;;;;;;4355664;32;20438;-38
2021/08/17 00:31:20;;;;;;;;;;;25.20;42.20;;;;;;4325659;33;19971;-40
2021/08/17 00:33:46;;;;;;;;;;;25.20;42.30;;;;;;4326305;33;20528;-39
2021/08/17 00:36:12;;;;;;;;;;;25.30;42.50;;;;;;4326170;33;19961;-39
2021/08/17 00:38:41;;;;;;;;;;;25.20;42.60;;;;;;4326062;33;20418;-40
2021/08/17 00:41:07;;;;;;;;;;;25.20;42.80;;;;;;4326142;33;19970;-39
2021/08/17 00:43:34;;;;;;;;;;;25.20;42.60;;;;;;4326578;33;19962;-40
2021/08/17 00:46:03;;;;;;;;;;;25.20;42.60;;;;;;4326405;33;20061;-38
2021/08/17 00:48:30;;;;;;;;;;;25.20;42.50;;;;;;4326251;33;20077;-40
2021/08/17 00:50:56;;;;;;;;;;;25.20;42.50;;;;;;4325956;33;20416;-39
2021/08/17 00:53:22;;;;;;;;;;;25.20;42.50;;;;;;4313862;33;19955;-40
2021/08/17 00:55:50;;;;;;;;;;;25.10;42.40;;;;;;4325984;33;19979;-38
2021/08/17 00:58:18;;;;;;;;;;;25.10;42.40;;;;;;4326163;33;19985;-38
2021/08/17 01:00:46;;;;;;;;;;;25.10;42.30;;;;;;4325045;33;19970;-37
2021/08/17 01:03:12;;;;;;;;;;;25.10;42.20;;;;;;4351663;32;19957;-37
2021/08/17 01:05:38;;;;;;;;;;;25.10;42.30;;;;;;4357789;32;20034;-38
2021/08/17 01:08:06;;;;;;;;;;;25.10;42.40;;;;;;4358100;32;19973;-38
2021/08/17 01:10:32;;;;;;;;;;;25.00;42.50;;;;;;4358223;32;19957;-37
2021/08/17 01:12:59;;;;;;;;;;;25.00;42.50;;;;;;4325498;33;20066;-38
2021/08/17 01:15:25;;;;;;;;;;;24.90;42.70;;;;;;4325856;33;20003;-38
2021/08/17 01:17:51;;;;;;;;;;;24.90;42.70;;;;;;4326085;33;19969;-37
2021/08/17 01:20:18;;;;;;;;;;;24.80;42.70;;;;;;4296334;33;19970;-38
2021/08/17 01:22:45;;;;;;;;;;;24.80;42.70;;;;;;4299050;33;19966;-38
2021/08/17 01:25:12;;;;;;;;;;;24.80;42.70;;;;;;4299381;33;20543;-38
2021/08/17 01:27:38;;;;;;;;;;;24.80;42.80;;;;;;4299565;33;20054;-39
2021/08/17 01:30:05;;;;;;;;;;;24.80;42.90;;;;;;4299604;33;20034;-37
2021/08/17 01:32:31;;;;;;;;;;;24.70;42.80;;;;;;4286904;33;19975;-39
2021/08/17 01:34:57;;;;;;;;;;;24.80;42.90;;;;;;4299346;33;19959;-39
2021/08/17 01:37:23;;;;;;;;;;;24.70;42.90;;;;;;4299394;33;19963;-38
2021/08/17 01:39:59;;;;;;;;;;;24.70;43.30;;;;;;4286937;33;20062;-39
2021/08/17 01:42:26;;;;;;;;;;;24.70;43.50;;;;;;4299233;33;19955;-37
2021/08/17 01:44:54;;;;;;;;;;;24.70;43.30;;;;;;4324253;33;19974;-39
2021/08/17 01:47:20;;;;;;;;;;;24.70;43.30;;;;;;4328450;33;19970;-38
2021/08/17 01:49:46;;;;;;;;;;;24.70;43.30;;;;;;4327960;33;20359;-39
2021/08/17 01:52:14;;;;;;;;;;;24.80;43.30;;;;;;4311875;33;19989;-38
2021/08/17 01:54:40;;;;;;;;;;;24.80;43.30;;;;;;4313892;33;19963;-37
2021/08/17 01:57:07;;;;;;;;;;;24.90;43.40;;;;;;4313916;33;19993;-39
2021/08/17 01:59:33;;;;;;;;;;;24.90;43.50;;;;;;4313570;33;19970;-41
2021/08/17 02:02:00;;;;;;;;;;;24.90;43.90;;;;;;4321419;33;19990;-39
2021/08/17 02:04:28;;;;;;;;;;;25.00;43.70;;;;;;4328316;33;20438;-40
2021/08/17 02:06:54;;;;;;;;;;;25.00;43.60;;;;;;4327675;33;20026;-39
2021/08/17 02:09:21;;;;;;;;;;;25.10;43.60;;;;;;4315420;33;19966;-39
2021/08/17 02:11:47;;;;;;;;;;;25.20;43.60;;;;;;4328076;33;19970;-39
2021/08/17 02:14:13;;;;;;;;;;;25.20;43.50;;;;;;4315766;33;20038;-40
2021/08/17 02:16:39;;;;;;;;;;;25.30;43.40;;;;;;4335440;33;19978;-39
2021/08/17 02:19:05;;;;;;;;;;;25.40;43.40;;;;;;4331258;33;20065;-39
2021/08/17 02:21:31;;;;;;;;;;;25.50;43.40;;;;;;4343342;33;20445;-39
2021/08/17 02:23:58;;;;;;;;;;;25.60;43.40;;;;;;4344857;33;19964;-38
2021/08/17 02:26:24;;;;;;;;;;;25.80;43.30;;;;;;4327143;33;20123;-40
2021/08/17 02:28:50;;;;;;;;;;;25.90;43.20;;;;;;4327418;33;20086;-39
2021/08/17 02:31:16;;;;;;;;;;;26.10;43.20;;;;;;4327670;33;20040;-40
2021/08/17 02:33:42;;;;;;;;;;;26.30;43.10;;;;;;4328005;33;19977;-39
2021/08/17 02:36:08;;;;;;;;;;;26.40;43.00;;;;;;4327350;33;19978;-39
2021/08/17 02:38:35;;;;;;;;;;;26.70;43.00;;;;;;4315032;33;20387;-39
2021/08/17 02:41:01;;;;;;;;;;;26.90;42.70;;;;;;4327418;33;20038;-39
2021/08/17 02:43:27;;;;;;;;;;;27.20;42.60;;;;;;4315558;33;19991;-39
2021/08/17 02:45:55;;;;;;;;;;;27.40;42.50;;;;;;4327628;33;19970;-38
2021/08/17 02:48:21;;;;;;;;;;;27.60;42.20;;;;;;4327345;33;20498;-39
2021/08/17 02:50:48;;;;;;;;;;;27.80;42.10;;;;;;4327366;33;19974;-39
2021/08/17 02:53:14;;;;;;;;;;;28.10;41.90;;;;;;4327526;33;20044;-39
2021/08/17 02:55:40;;;;;;;;;;;28.40;41.70;;;;;;4327930;33;20375;-39
2021/08/17 02:58:09;;;;;;;;;;;28.70;41.40;;;;;;4340471;33;20030;-39
2021/08/17 03:00:39;;;;;;;;;;;29.00;41.30;;;;;;4343929;33;20000;-39
2021/08/17 03:03:06;;;;;;;;;;;29.30;40.90;;;;;;4344674;33;19997;-39
2021/08/17 03:05:32;;;;;;;;;;;29.50;40.60;;;;;;4344202;33;19964;-40
2021/08/17 03:08:00;;;;;;;;;;;29.80;40.30;;;;;;4344352;33;19970;-38
2021/08/17 03:10:27;;;;;;;;;;;30.10;40.10;;;;;;4343850;33;20095;-38
2021/08/17 03:12:53;;;;;;;;;;;30.30;39.60;;;;;;4344088;33;20030;-39
2021/08/17 03:15:19;;;;;;;;;;;30.50;39.00;;;;;;4346971;32;20031;-39
2021/08/17 03:17:46;;;;;;;;;;;30.70;38.40;;;;;;4357484;32;20037;-39
2021/08/17 03:20:13;;;;;;;;;;;30.90;37.40;;;;;;4358661;32;19970;-40
2021/08/17 03:22:39;;;;;;;;;;;31.00;36.60;;;;;;4358860;32;20048;-38
2021/08/17 03:25:07;;;;;;;;;;;31.20;35.80;;;;;;4358993;32;20005;-40
2021/08/17 03:27:34;;;;;;;;;;;31.30;35.40;;;;;;4358775;32;20025;-39
2021/08/17 03:30:00;;;;;;;;;;;31.60;35.40;;;;;;4358839;32;19958;-39
2021/08/17 03:32:26;;;;;;;;;;;31.80;35.20;;;;;;4358487;32;19965;-40
2021/08/17 03:34:53;;;;;;;;;;;32.00;35.00;;;;;;4358659;32;20373;-39
2021/08/17 03:37:19;;;;;;;;;;;32.20;34.80;;;;;;4358559;32;20358;-39
2021/08/17 03:39:46;;;;;;;;;;;32.40;34.70;;;;;;4358857;32;19958;-38
2021/08/17 03:42:13;;;;;;;;;;;32.60;34.60;;;;;;4359139;32;19958;-39
2021/08/17 03:44:39;;;;;;;;;;;32.80;34.70;;;;;;4358400;32;20441;-38
2021/08/17 03:47:05;;;;;;;;;;;32.90;34.80;;;;;;4358520;32;19973;-39
2021/08/17 03:49:31;;;;;;;;;;;33.20;34.80;;;;;;4358675;32;19958;-39
2021/08/17 03:51:58;;;;;;;;;;;33.40;34.70;;;;;;4358127;32;20491;-38
2021/08/17 03:54:24;;;;;;;;;;;33.60;34.50;;;;;;4358527;32;19966;-38
2021/08/17 03:56:50;;;;;;;;;;;33.80;34.30;;;;;;4358495;32;19968;-38
2021/08/17 03:59:16;;;;;;;;;;;34.00;34.10;;;;;;4358573;32;19961;-38
2021/08/17 04:01:42;;;;;;;;;;;34.20;34.00;;;;;;4358578;32;20350;-39
2021/08/17 04:04:08;;;;;;;;;;;34.40;33.90;;;;;;4369393;32;19985;-38
2021/08/17 04:06:35;;;;;;;;;;;34.50;33.80;;;;;;4358606;32;20323;-39
2021/08/17 04:09:01;;;;;;;;;;;34.60;33.70;;;;;;4358413;32;20386;-38
2021/08/17 04:11:27;;;;;;;;;;;34.70;33.70;;;;;;4357286;32;19955;-38
2021/08/17 04:13:53;;;;;;;;;;;34.80;33.70;;;;;;4357994;32;19958;-39
2021/08/17 04:16:20;;;;;;;;;;;34.90;33.60;;;;;;4367045;32;20402;-39
2021/08/17 04:18:46;;;;;;;;;;;34.90;33.50;;;;;;4373906;32;19980;-39
2021/08/17 04:21:12;;;;;;;;;;;34.80;33.40;;;;;;4373148;32;20358;-38
2021/08/17 04:23:38;;;;;;;;;;;34.80;34.30;;;;;;4373334;32;20080;-39
2021/08/17 04:26:04;;;;;;;;;;;34.70;33.60;;;;;;4359101;32;20343;-38
2021/08/17 04:28:32;;;;;;;;;;;34.60;33.50;;;;;;4372955;32;19953;-38
2021/08/17 04:30:58;;;;;;;;;;;34.50;33.40;;;;;;4373367;32;19957;-38
2021/08/17 04:33:24;;;;;;;;;;;34.40;33.30;;;;;;4373292;32;20123;-37
2021/08/17 04:35:51;;;;;;;;;;;34.20;33.10;;;;;;4371609;32;19993;-39
2021/08/17 04:38:17;;;;;;;;;;;34.00;33.30;;;;;;4358405;32;19973;-38
2021/08/17 04:40:43;;;;;;;;;;;33.80;33.40;;;;;;4357657;32;19957;-38
2021/08/17 04:43:09;;;;;;;;;;;33.70;33.60;;;;;;4358060;32;19965;-38
2021/08/17 04:45:35;;;;;;;;;;;33.50;33.60;;;;;;4358091;32;20536;-38
2021/08/17 04:48:03;;;;;;;;;;;33.50;33.70;;;;;;4358231;32;19981;-38
2021/08/17 04:50:29;;;;;;;;;;;33.40;33.70;;;;;;4358464;32;20025;-38
2021/08/17 04:52:56;;;;;;;;;;;33.30;33.70;;;;;;4358425;32;19977;-38
2021/08/17 04:55:22;;;;;;;;;;;33.20;33.90;;;;;;4352127;32;19967;-39
2021/08/17 04:57:58;;;;;;;;;;;33.20;34.10;;;;;;4375997;32;19969;-38
2021/08/17 05:00:26;;;;;;;;;;;33.30;34.30;;;;;;4376123;32;19973;-38
2021/08/17 05:02:53;;;;;;;;;;;33.30;34.50;;;;;;4375983;32;19958;-38
2021/08/17 05:05:19;;;;;;;;;;;33.40;34.60;;;;;;4375664;32;20058;-37
2021/08/17 05:07:45;;;;;;;;;;;33.40;34.40;;;;;;4375939;32;20081;-38
2021/08/17 05:10:15;;;;;;;;;;;33.60;34.30;;;;;;4361724;32;19961;-38
2021/08/17 05:12:41;;;;;;;;;;;33.80;34.10;;;;;;4361784;32;19981;-38
2021/08/17 05:15:08;;;;;;;;;;;34.10;33.80;;;;;;4375235;32;20446;-37
2021/08/17 05:17:34;;;;;;;;;;;34.40;33.50;;;;;;4375859;32;19953;-36
2021/08/17 05:20:01;;;;;;;;;;;34.80;33.00;;;;;;4361711;32;20107;-38
2021/08/17 05:22:27;;;;;;;;;;;35.20;32.70;;;;;;4361778;32;19985;-37
2021/08/17 05:24:54;;;;;;;;;;;35.60;32.40;;;;;;4375763;32;19961;-38
2021/08/17 05:27:20;;;;;;;;;;;36.10;31.50;;;;;;4375576;32;20053;-38
2021/08/17 05:29:50;;;;;;;;;;;36.60;31.00;;;;;;4375591;32;19965;-37
2021/08/17 05:32:16;;;;;;;;;;;37.20;30.30;;;;;;4365196;32;19965;-38
2021/08/17 05:34:43;;;;;;;;;;;37.90;30.10;;;;;;4360481;32;19970;-37
2021/08/17 05:37:09;;;;;;;;;;;38.70;29.70;;;;;;4360510;32;20039;-37
2021/08/17 05:39:35;;;;;;;;;;;39.30;28.80;;;;;;4342823;33;19970;-38
2021/08/17 05:42:02;;;;;;;;;;;39.70;27.50;;;;;;4343306;32;20548;-38
2021/08/17 05:44:28;;;;;;;;;;;40.10;27.50;;;;;;4342886;33;19982;-39
2021/08/17 05:46:54;;;;;;;;;;;40.50;27.00;;;;;;4342614;32;19958;-39
2021/08/17 05:49:20;;;;;;;;;;;40.70;26.50;;;;;;4343350;32;20025;-38
2021/08/17 05:51:47;;;;;;;;;;;41.00;26.50;;;;;;4342767;33;19978;-38
2021/08/17 05:54:13;;;;;;;;;;;41.40;26.50;;;;;;4342563;33;19986;-39
2021/08/17 05:56:39;;;;;;;;;;;41.80;26.40;;;;;;4342697;32;20730;-38
2021/08/17 05:59:05;;;;;;;;;;;42.00;26.30;;;;;;4342741;32;19958;-39
2021/08/17 06:01:31;;;;;;;;;;;42.20;27.00;;;;;;4342941;32;19967;-39
2021/08/17 06:03:58;;;;;;;;;;;42.30;27.20;;;;;;4342602;32;19958;-37
2021/08/17 06:06:24;;;;;;;;;;;42.50;27.50;;;;;;4342376;32;20480;-39
2021/08/17 06:08:51;;;;;;;;;;;42.40;27.60;;;;;;4342494;33;19961;-39
2021/08/17 06:11:17;;;;;;;;;;;42.30;27.60;;;;;;4355987;32;20470;-39
2021/08/17 06:13:43;;;;;;;;;;;42.30;27.80;;;;;;4358460;32;19966;-39
2021/08/17 06:16:09;;;;;;;;;;;42.20;27.90;;;;;;4367278;32;20016;-38
2021/08/17 06:18:36;;;;;;;;;;;42.20;27.90;;;;;;4374549;32;19981;-38
2021/08/17 06:21:02;;;;;;;;;;;42.10;27.90;;;;;;4374808;32;20036;-38
2021/08/17 06:23:28;;;;;;;;;;;42.10;28.00;;;;;;4374638;32;20399;-38
2021/08/17 06:25:54;;;;;;;;;;;42.00;28.00;;;;;;4375031;32;19957;-38
2021/08/17 06:28:20;;;;;;;;;;;42.00;27.80;;;;;;4374255;32;20373;-39
2021/08/17 06:30:47;;;;;;;;;;;41.80;27.60;;;;;;4373540;32;19996;-38
2021/08/17 06:33:13;;;;;;;;;;;41.60;27.50;;;;;;4359522;32;19965;-38
2021/08/17 06:35:39;;;;;;;;;;;41.40;27.60;;;;;;4359385;32;20456;-38
2021/08/17 06:38:05;;;;;;;;;;;41.20;27.70;;;;;;4359168;32;20392;-38
2021/08/17 06:40:31;;;;;;;;;;;41.00;27.70;;;;;;4359368;32;19969;-39
2021/08/17 06:42:58;;;;;;;;;;;40.80;27.70;;;;;;4359768;32;20421;-39
2021/08/17 06:45:24;;;;;;;;;;;40.60;27.70;;;;;;4359501;32;20054;-39
2021/08/17 06:47:51;;;;;;;;;;;40.50;27.60;;;;;;4359410;32;19965;-38
2021/08/17 06:50:18;;;;;;;;;;;40.50;27.60;;;;;;4359029;32;20077;-39
2021/08/17 06:52:44;;;;;;;;;;;40.40;27.40;;;;;;4359118;32;19973;-38
2021/08/17 06:55:11;;;;;;;;;;;40.30;27.90;;;;;;4359232;32;19972;-38
2021/08/17 06:57:38;;;;;;;;;;;40.20;27.30;;;;;;4358987;32;20038;-38
2021/08/17 07:00:08;;;;;;;;;;;40.00;27.30;;;;;;4359044;32;20382;-38
2021/08/17 07:02:35;;;;;;;;;;;39.80;27.60;;;;;;4359261;32;19960;-38
2021/08/17 07:05:01;;;;;;;;;;;39.60;27.70;;;;;;4359380;32;19989;-37
2021/08/17 07:07:27;;;;;;;;;;;39.20;27.90;;;;;;4359594;32;19950;-38
2021/08/17 07:09:54;;;;;;;;;;;39.00;28.00;;;;;;4359315;32;20418;-38
2021/08/17 07:12:20;;;;;;;;;;;38.80;27.80;;;;;;4358773;32;20433;-38
2021/08/17 07:14:46;;;;;;;;;;;38.70;27.60;;;;;;4345337;32;20485;-37
2021/08/17 07:17:12;;;;;;;;;;;38.50;27.60;;;;;;4358858;32;19950;-38
2021/08/17 07:19:38;;;;;;;;;;;38.60;27.80;;;;;;4358948;32;19969;-38
2021/08/17 07:22:05;;;;;;;;;;;38.60;27.90;;;;;;4358957;32;19977;-38
2021/08/17 07:24:31;;;;;;;;;;;38.80;28.00;;;;;;4359232;32;19969;-38
2021/08/17 07:26:57;;;;;;;;;;;39.10;27.90;;;;;;4358591;32;20385;-37
2021/08/17 07:29:23;;;;;;;;;;;39.40;27.60;;;;;;4358540;32;19957;-37
2021/08/17 07:31:49;;;;;;;;;;;39.70;27.20;;;;;;4358632;32;19953;-38
2021/08/17 07:34:16;;;;;;;;;;;40.00;27.00;;;;;;4357296;32;19973;-39
2021/08/17 07:36:42;;;;;;;;;;;40.30;26.80;;;;;;4358951;32;19953;-38
2021/08/17 07:39:09;;;;;;;;;;;40.70;26.50;;;;;;4358531;32;19951;-39
2021/08/17 07:41:36;;;;;;;;;;;41.10;26.20;;;;;;4358603;32;20428;-39
2021/08/17 07:44:02;;;;;;;;;;;41.40;25.60;;;;;;4358388;32;20039;-39
2021/08/17 07:46:28;;;;;;;;;;;41.60;25.00;;;;;;4359127;32;19993;-38
2021/08/17 07:48:55;;;;;;;;;;;41.60;24.70;;;;;;4358634;32;20077;-37
2021/08/17 07:51:22;;;;;;;;;;;41.60;24.40;;;;;;4357217;32;19986;-39
2021/08/17 07:53:48;;;;;;;;;;;41.60;24.40;;;;;;4358461;32;20350;-39
2021/08/17 07:56:15;;;;;;;;;;;41.50;24.50;;;;;;4358329;32;19949;-39
2021/08/17 07:58:41;;;;;;;;;;;41.40;24.70;;;;;;4358348;32;20020;-38
2021/08/17 08:01:10;;;;;;;;;;;41.50;24.90;;;;;;4358403;32;19972;-39
2021/08/17 08:03:36;;;;;;;;;;;41.50;24.90;;;;;;4358393;32;19965;-38
2021/08/17 08:06:02;;;;;;;;;;;41.50;24.90;;;;;;4358328;32;19973;-39
2021/08/17 08:08:28;;;;;;;;;;;41.60;24.60;;;;;;4358592;32;19969;-39
2021/08/17 08:10:55;;;;;;;;;;;41.50;24.20;;;;;;4358468;32;19954;-38
2021/08/17 08:13:21;;;;;;;;;;;41.50;24.00;;;;;;4358640;32;19954;-38
2021/08/17 08:15:47;;;;;;;;;;;41.50;23.80;;;;;;4363806;32;19969;-37
2021/08/17 08:18:13;;;;;;;;;;;41.60;23.70;;;;;;4373219;32;20438;-37
2021/08/17 08:20:40;;;;;;;;;;;41.70;23.60;;;;;;4373242;32;19978;-39
2021/08/17 08:23:06;;;;;;;;;;;41.80;23.20;;;;;;4359155;32;20046;-39
2021/08/17 08:25:33;;;;;;;;;;;41.90;22.80;;;;;;4371890;32;19977;-39
2021/08/17 08:27:59;;;;;;;;;;;42.00;22.80;;;;;;4373372;32;20378;-38
2021/08/17 08:30:25;;;;;;;;;;;42.20;22.70;;;;;;4374727;32;19961;-39
2021/08/17 08:32:51;;;;;;;;;;;42.50;22.30;;;;;;4362532;32;19965;-38
2021/08/17 08:35:17;;;;;;;;;;;42.80;22.30;;;;;;4360895;32;20363;-37
2021/08/17 08:37:44;;;;;;;;;;;43.10;22.20;;;;;;4361066;32;19969;-38
2021/08/17 08:40:11;;;;;;;;;;;43.40;21.80;;;;;;4360708;32;20417;-38
2021/08/17 08:42:37;;;;;;;;;;;43.80;21.40;;;;;;4361283;32;19962;-38
2021/08/17 08:45:04;;;;;;;;;;;44.00;21.30;;;;;;4347146;32;19974;-37
2021/08/17 08:47:32;;;;;;;;;;;44.10;21.30;;;;;;4360986;32;20124;-38
2021/08/17 08:49:58;;;;;;;;;;;44.10;21.40;;;;;;4360983;32;20022;-39
2021/08/17 08:52:24;;;;;;;;;;;44.10;21.50;;;;;;4347011;32;20453;-38
2021/08/17 08:54:50;;;;;;;;;;;44.20;21.70;;;;;;4360911;32;19969;-39
2021/08/17 08:57:17;;;;;;;;;;;44.20;21.70;;;;;;4360479;32;20106;-38
2021/08/17 08:59:43;;;;;;;;;;;44.20;21.50;;;;;;4360643;32;20056;-37
2021/08/17 09:02:14;;;;;;;;;;;44.20;21.50;;;;;;4361052;32;20356;-38
2021/08/17 09:04:52;;;;;;;;;;;44.10;21.40;;;;;;4347316;32;19977;-38
2021/08/17 09:07:43;;;;;;;;;;;44.10;21.30;;;;;;4360980;32;19962;-38
2021/08/17 09:10:12;;;;;;;;;;;44.20;21.00;;;;;;4360850;32;20345;-39
2021/08/17 09:12:40;;;;;;;;;;;44.40;20.80;;;;;;4360750;32;20043;-39
2021/08/17 09:15:09;;;;;;;;;;;44.50;20.70;;;;;;4360291;32;20053;-39
2021/08/17 09:17:35;;;;;;;;;;;44.50;20.60;;;;;;4360585;32;20033;-38
2021/08/17 09:20:02;;;;;;;;;;;44.50;20.40;;;;;;4360924;32;19964;-40
2021/08/17 09:22:30;;;;;;;;;;;44.70;20.40;;;;;;4360331;32;19965;-38
2021/08/17 09:24:58;;;;;;;;;;;44.70;20.20;;;;;;4360290;32;20543;-37
2021/08/17 09:27:28;;;;;;;;;;;44.80;19.80;;;;;;4360669;32;19965;-40
2021/08/17 09:30:05;;;;;;;;;;;45.00;19.70;;;;;;4360702;32;19993;-37
2021/08/17 09:32:31;;;;;;;;;;;45.20;19.60;;;;;;4360557;32;20395;-37
2021/08/17 09:34:59;;;;;;;;;;;45.30;19.30;;;;;;4360685;32;19993;-37
2021/08/17 09:37:30;;;;;;;;;;;45.50;19.10;;;;;;4360600;32;19969;-38
2021/08/17 09:39:57;;;;;;;;;;;45.70;19.00;;;;;;4360367;32;19953;-38
2021/08/17 09:42:30;;;;;;;;;;;45.90;18.90;;;;;;4359770;32;19965;-37
2021/08/17 09:45:03;;;;;;;;;;;46.00;18.90;;;;;;4360483;32;20235;-38
2021/08/17 09:47:29;;;;;;;;;;;46.00;18.80;;;;;;4360180;32;19960;-39
2021/08/17 09:49:56;;;;;;;;;;;45.90;18.50;;;;;;4360419;32;19968;-38
2021/08/17 09:52:23;;;;;;;;;;;45.80;18.60;;;;;;4346277;32;19981;-38
2021/08/17 09:54:49;;;;;;;;;;;45.80;18.50;;;;;;4359758;32;19985;-39
2021/08/17 09:57:15;;;;;;;;;;;46.00;18.70;;;;;;4360179;32;20378;-39
2021/08/17 09:59:43;;;;;;;;;;;46.10;18.80;;;;;;4359650;32;20105;-38
2021/08/17 10:02:10;;;;;;;;;;;46.00;18.80;;;;;;4358440;32;20070;-38
2021/08/17 10:04:38;;;;;;;;;;;46.00;18.80;;;;;;4360033;32;19975;-40
2021/08/17 10:07:05;;;;;;;;;;;46.00;18.80;;;;;;4360166;32;19954;-38
2021/08/17 10:09:32;;;;;;;;;;;46.10;18.80;;;;;;4359467;32;20455;-38
2021/08/17 10:11:59;;;;;;;;;;;46.30;18.90;;;;;;4359843;32;19954;-39
2021/08/17 10:14:25;;;;;;;;;;;46.30;18.90;;;;;;4360020;32;20043;-38
2021/08/17 10:16:51;;;;;;;;;;;46.30;19.30;;;;;;4358174;32;19967;-38
2021/08/17 10:19:29;;;;;;;;;;;46.40;19.50;;;;;;4359479;32;20495;-38
2021/08/17 10:21:56;;;;;;;;;;;46.50;19.60;;;;;;4358519;32;20484;-39
2021/08/17 10:24:30;;;;;;;;;;;46.60;19.70;;;;;;4357833;32;20424;-40
2021/08/17 10:27:21;;;;;;;;;;;46.60;19.90;;;;;;4358192;32;19962;-40
2021/08/17 10:30:10;;;;;;;;;;;46.50;20.00;;;;;;4359685;32;19961;-38
2021/08/17 10:32:48;;;;;;;;;;;46.50;20.20;;;;;;4359691;32;19973;-38
2021/08/17 10:35:27;;;;;;;;;;;46.30;20.30;;;;;;4359698;32;19961;-38
2021/08/17 10:38:16;;;;;;;;;;;46.00;20.40;;;;;;4359379;32;19958;-38
2021/08/17 10:40:51;;;;;;;;;;;45.90;20.70;;;;;;4337556;32;20001;-39
2021/08/17 10:43:27;;;;;;;;;;;45.70;20.90;;;;;;4359235;32;20343;-39
2021/08/17 10:46:04;;;;;;;;;;;45.70;21.10;;;;;;4359333;32;19965;-39
2021/08/17 10:48:45;;;;;;;;;;;45.80;21.20;;;;;;4358122;32;19980;-39
2021/08/17 10:51:37;;;;;;;;;;;46.10;21.30;;;;;;4358845;32;20407;-39
2021/08/17 10:54:03;;;;;;;;;;;46.40;21.30;;;;;;4345418;32;19987;-37
2021/08/17 10:56:33;;;;;;;;;;;46.60;21.10;;;;;;4359099;32;20376;-39
2021/08/17 10:58:59;;;;;;;;;;;46.90;21.00;;;;;;4359174;32;19954;-39
2021/08/17 11:01:32;;;;;;;;;;;47.10;21.00;;;;;;4359164;32;19970;-39
2021/08/17 11:03:59;;;;;;;;;;;47.30;21.00;;;;;;4358805;32;20012;-37
2021/08/17 11:06:45;;;;;;;;;;;47.40;20.90;;;;;;4358942;32;20055;-39
2021/08/17 11:09:15;;;;;;;;;;;47.40;21.00;;;;;;4358929;32;20030;-37
2021/08/17 11:11:44;;;;;;;;;;;47.40;20.90;;;;;;4359579;32;19973;-37
2021/08/17 11:14:18;;;;;;;;;;;47.40;20.90;;;;;;4359403;32;20363;-38
2021/08/17 11:16:52;;;;;;;;;;;47.40;21.00;;;;;;4359015;32;19970;-39
2021/08/17 11:19:19;;;;;;;;;;;47.30;21.00;;;;;;4358942;32;20346;-38
2021/08/17 11:21:52;;;;;;;;;;;47.10;21.10;;;;;;4358752;32;20421;-38
2021/08/17 11:24:40;;;;;;;;;;;47.10;21.20;;;;;;4358685;32;20050;-38
2021/08/17 11:27:16;;;;;;;;;;;47.10;21.20;;;;;;4346428;32;19949;-38
2021/08/17 11:29:43;;;;;;;;;;;47.10;21.20;;;;;;4345065;32;19998;-38
2021/08/17 11:32:24;;;;;;;;;;;47.10;21.10;;;;;;4358975;32;20085;-38
2021/08/17 11:34:50;;;;;;;;;;;47.20;21.10;;;;;;4358542;32;19981;-39
2021/08/17 11:37:17;;;;;;;;;;;47.30;21.00;;;;;;4358912;32;20390;-39
2021/08/17 11:39:47;;;;;;;;;;;47.60;20.90;;;;;;4358777;32;19969;-39
2021/08/17 11:42:21;;;;;;;;;;;47.90;20.90;;;;;;4358657;32;20066;-39
2021/08/17 11:44:49;;;;;;;;;;;47.90;20.80;;;;;;4358780;32;20369;-39
2021/08/17 11:47:17;;;;;;;;;;;47.60;20.80;;;;;;4358544;32;20035;-39
2021/08/17 11:49:44;;;;;;;;;;;47.40;20.80;;;;;;4358987;32;19962;-38
2021/08/17 11:52:21;;;;;;;;;;;47.30;20.90;;;;;;4358494;32;20414;-38
2021/08/17 11:54:58;;;;;;;;;;;47.20;20.90;;;;;;4358170;32;19969;-39
2021/08/17 11:57:32;;;;;;;;;;;47.10;21.00;;;;;;4358017;32;19958;-39
2021/08/17 12:00:18;;;;;;;;;;;46.90;20.90;;;;;;4357864;32;20492;-38
2021/08/17 12:02:46;;;;;;;;;;;46.80;21.00;;;;;;4358873;32;20381;-38
2021/08/17 12:05:19;;;;;;;;;;;46.60;21.00;;;;;;4358170;32;19964;-39
2021/08/17 12:07:49;;;;;;;;;;;46.60;21.00;;;;;;4358371;32;19965;-39
2021/08/17 12:10:20;;;;;;;;;;;46.70;21.00;;;;;;4358448;32;19977;-39
2021/08/17 12:13:08;;;;;;;;;;;46.70;20.90;;;;;;4357482;32;19985;-38
2021/08/17 12:15:37;;;;;;;;;;;46.80;20.90;;;;;;4360475;32;19957;-38
2021/08/17 12:18:13;;;;;;;;;;;46.90;20.80;;;;;;4373264;32;19957;-38
2021/08/17 12:20:45;;;;;;;;;;;46.90;20.70;;;;;;4372902;32;19997;-39
2021/08/17 12:23:28;;;;;;;;;;;46.90;20.80;;;;;;4359300;32;20224;-37
2021/08/17 12:26:09;;;;;;;;;;;46.80;20.70;;;;;;4359283;32;20401;-38
2021/08/17 12:28:36;;;;;;;;;;;46.80;20.70;;;;;;4373032;32;20394;-39
2021/08/17 12:31:25;;;;;;;;;;;46.80;20.60;;;;;;4370364;32;20398;-39
2021/08/17 12:33:55;;;;;;;;;;;46.80;20.70;;;;;;4358236;32;19955;-39
2021/08/17 12:36:46;;;;;;;;;;;46.80;20.70;;;;;;4357801;32;20472;-39
2021/08/17 12:39:20;;;;;;;;;;;46.70;20.60;;;;;;4358068;32;20511;-38
2021/08/17 12:41:57;;;;;;;;;;;46.80;20.60;;;;;;4358250;32;19965;-39
2021/08/17 12:44:33;;;;;;;;;;;46.70;20.60;;;;;;4358172;32;19968;-40
2021/08/17 12:47:15;;;;;;;;;;;46.60;20.50;;;;;;4344197;32;19965;-38
2021/08/17 12:50:01;;;;;;;;;;;46.60;20.50;;;;;;4358018;32;19961;-38
2021/08/17 12:52:27;;;;;;;;;;;46.60;20.50;;;;;;4358202;32;20413;-38
2021/08/17 12:55:02;;;;;;;;;;;46.70;20.50;;;;;;4358019;32;19977;-39
2021/08/17 12:57:29;;;;;;;;;;;46.70;20.50;;;;;;4358259;32;20034;-39
2021/08/17 12:59:57;;;;;;;;;;;46.60;20.60;;;;;;4357594;32;19968;-39
2021/08/17 13:02:24;;;;;;;;;;;46.20;20.50;;;;;;4344184;32;19973;-39
2021/08/17 13:04:50;;;;;;;;;;;46.00;20.70;;;;;;4357837;32;19953;-39
2021/08/17 13:07:16;;;;;;;;;;;45.80;20.70;;;;;;4357782;32;19985;-38
2021/08/17 13:09:43;;;;;;;;;;;45.60;20.70;;;;;;4343979;32;19962;-37
2021/08/17 13:12:09;;;;;;;;;;;45.30;20.70;;;;;;4358078;32;20253;-38
2021/08/17 13:14:35;;;;;;;;;;;45.00;20.80;;;;;;4357853;32;19962;-38
2021/08/17 13:17:02;;;;;;;;;;;44.80;20.90;;;;;;4358865;32;19954;-38
2021/08/17 13:19:28;;;;;;;;;;;44.60;21.00;;;;;;4360917;32;19973;-39
2021/08/17 13:21:54;;;;;;;;;;;44.30;21.00;;;;;;4360732;32;19957;-39
2021/08/17 13:24:21;;;;;;;;;;;44.20;21.10;;;;;;4347052;32;19957;-39
2021/08/17 13:26:47;;;;;;;;;;;44.00;21.20;;;;;;4360710;32;19954;-37
2021/08/17 13:29:13;;;;;;;;;;;43.90;21.30;;;;;;4333794;32;20373;-38
2021/08/17 13:31:40;;;;;;;;;;;43.80;21.30;;;;;;4359937;32;20455;-38
2021/08/17 13:34:07;;;;;;;;;;;43.60;21.30;;;;;;4360248;32;19964;-39
2021/08/17 13:36:33;;;;;;;;;;;43.50;21.30;;;;;;4360072;32;20000;-38
2021/08/17 13:38:59;;;;;;;;;;;43.40;21.40;;;;;;4359862;32;19961;-38
2021/08/17 13:41:25;;;;;;;;;;;43.30;21.50;;;;;;4360078;32;19968;-39
2021/08/17 13:43:51;;;;;;;;;;;43.20;21.50;;;;;;4360277;32;20521;-39
2021/08/17 13:46:20;;;;;;;;;;;43.10;21.50;;;;;;4360133;32;20035;-39
2021/08/17 13:48:46;;;;;;;;;;;43.00;21.60;;;;;;4360063;32;20065;-39
2021/08/17 13:51:12;;;;;;;;;;;43.00;21.70;;;;;;4360148;32;19988;-39
2021/08/17 13:53:38;;;;;;;;;;;42.90;21.70;;;;;;4359974;32;20015;-39
2021/08/17 13:56:05;;;;;;;;;;;42.90;21.80;;;;;;4370943;32;19962;-39
2021/08/17 13:58:31;;;;;;;;;;;42.80;21.90;;;;;;4360221;32;20035;-37
2021/08/17 14:00:57;;;;;;;;;;;42.70;21.90;;;;;;4359535;32;19950;-38
2021/08/17 14:03:23;;;;;;;;;;;42.70;22.00;;;;;;4360124;32;19979;-38
2021/08/17 14:05:51;;;;;;;;;;;42.60;22.10;;;;;;4360337;32;19945;-38
2021/08/17 14:08:17;;;;;;;;;;;42.60;22.10;;;;;;4360227;32;19962;-39
2021/08/17 14:10:43;;;;;;;;;;;42.60;22.20;;;;;;4360031;32;20062;-39
2021/08/17 14:13:10;;;;;;;;;;;42.50;22.20;;;;;;4360104;32;20066;-38
2021/08/17 14:15:36;;;;;;;;;;;42.50;22.30;;;;;;4362600;32;19981;-37
2021/08/17 14:18:02;;;;;;;;;;;42.50;22.40;;;;;;4374446;32;19991;-38
2021/08/17 14:20:29;;;;;;;;;;;42.40;22.30;;;;;;4374918;32;19977;-38
2021/08/17 14:22:55;;;;;;;;;;;42.30;22.30;;;;;;4374132;32;20041;-38